sensor_id;sensor_type;location;lat;lon;timestamp;temperature;humidity
76613;DHT22;65507;48.454;-2.058;2024-02-21T00:02:18;11.20;86.70
76613;DHT22;65507;48.454;-2.058;2024-02-21T00:04:44;11.20;86.80
76613;DHT22;65507;48.454;-2.058;2024-02-21T00:07:12;11.20;86.90
76613;DHT22;65507;48.454;-2.058;2024-02-21T00:09:38;11.20;87.00
76613;DHT22;65507;48.454;-2.058;2024-02-21T00:12:04;11.20;87.00
76613;DHT22;65507;48.454;-2.058;2024-02-21T00:14:30;11.20;87.00
76613;DHT22;65507;48.454;-2.058;2024-02-21T00:16:56;11.20;87.10
76613;DHT22;65507;48.454;-2.058;2024-02-21T00:19:22;11.20;87.10
76613;DHT22;65507;48.454;-2.058;2024-02-21T00:21:47;11.20;87.10
76613;DHT22;65507;48.454;-2.058;2024-02-21T00:24:13;11.20;87.10
76613;DHT22;65507;48.454;-2.058;2024-02-21T00:26:39;11.20;87.20
76613;DHT22;65507;48.454;-2.058;2024-02-21T00:29:04;11.30;87.20
76613;DHT22;65507;48.454;-2.058;2024-02-21T00:31:31;11.30;87.20
76613;DHT22;65507;48.454;-2.058;2024-02-21T00:33:56;11.30;87.20
76613;DHT22;65507;48.454;-2.058;2024-02-21T00:36:22;11.30;87.20
76613;DHT22;65507;48.454;-2.058;2024-02-21T00:38:47;11.30;87.20
76613;DHT22;65507;48.454;-2.058;2024-02-21T00:41:13;11.30;87.20
76613;DHT22;65507;48.454;-2.058;2024-02-21T00:43:42;11.30;87.30
76613;DHT22;65507;48.454;-2.058;2024-02-21T00:46:08;11.30;87.30
76613;DHT22;65507;48.454;-2.058;2024-02-21T00:48:33;11.30;87.50
76613;DHT22;65507;48.454;-2.058;2024-02-21T00:50:59;11.30;87.50
76613;DHT22;65507;48.454;-2.058;2024-02-21T00:53:25;11.30;87.50
76613;DHT22;65507;48.454;-2.058;2024-02-21T00:55:51;11.20;87.50
76613;DHT22;65507;48.454;-2.058;2024-02-21T00:58:16;11.20;87.60
76613;DHT22;65507;48.454;-2.058;2024-02-21T01:00:42;11.20;87.60
76613;DHT22;65507;48.454;-2.058;2024-02-21T01:03:07;11.30;87.70
76613;DHT22;65507;48.454;-2.058;2024-02-21T01:05:33;11.30;87.70
76613;DHT22;65507;48.454;-2.058;2024-02-21T01:07:59;11.30;87.70
76613;DHT22;65507;48.454;-2.058;2024-02-21T01:10:24;11.30;87.60
76613;DHT22;65507;48.454;-2.058;2024-02-21T01:12:50;11.30;87.70
76613;DHT22;65507;48.454;-2.058;2024-02-21T01:15:16;11.30;87.70
76613;DHT22;65507;48.454;-2.058;2024-02-21T01:17:41;11.30;87.70
76613;DHT22;65507;48.454;-2.058;2024-02-21T01:20:07;11.30;87.70
76613;DHT22;65507;48.454;-2.058;2024-02-21T01:22:33;11.30;87.80
76613;DHT22;65507;48.454;-2.058;2024-02-21T01:24:59;11.30;87.80
76613;DHT22;65507;48.454;-2.058;2024-02-21T01:27:24;11.30;87.90
76613;DHT22;65507;48.454;-2.058;2024-02-21T01:29:50;11.30;87.80
76613;DHT22;65507;48.454;-2.058;2024-02-21T01:32:16;11.30;87.80
76613;DHT22;65507;48.454;-2.058;2024-02-21T01:34:42;11.30;87.80
76613;DHT22;65507;48.454;-2.058;2024-02-21T01:37:07;11.40;87.90
76613;DHT22;65507;48.454;-2.058;2024-02-21T01:39:33;11.40;87.90
76613;DHT22;65507;48.454;-2.058;2024-02-21T01:41:59;11.40;88.80
76613;DHT22;65507;48.454;-2.058;2024-02-21T01:44:25;11.40;87.90
76613;DHT22;65507;48.454;-2.058;2024-02-21T01:46:52;11.40;87.90
76613;DHT22;65507;48.454;-2.058;2024-02-21T01:49:19;11.40;87.90
76613;DHT22;65507;48.454;-2.058;2024-02-21T01:51:46;11.40;87.90
76613;DHT22;65507;48.454;-2.058;2024-02-21T01:54:14;11.50;87.90
76613;DHT22;65507;48.454;-2.058;2024-02-21T01:56:41;11.50;88.00
76613;DHT22;65507;48.454;-2.058;2024-02-21T01:59:07;11.50;87.90
76613;DHT22;65507;48.454;-2.058;2024-02-21T02:01:33;11.50;87.90
76613;DHT22;65507;48.454;-2.058;2024-02-21T02:03:59;11.50;88.00
76613;DHT22;65507;48.454;-2.058;2024-02-21T02:06:25;11.50;87.90
76613;DHT22;65507;48.454;-2.058;2024-02-21T02:08:51;11.50;88.00
76613;DHT22;65507;48.454;-2.058;2024-02-21T02:11:17;11.50;88.00
76613;DHT22;65507;48.454;-2.058;2024-02-21T02:13:42;11.50;88.00
76613;DHT22;65507;48.454;-2.058;2024-02-21T02:16:08;11.50;88.00
76613;DHT22;65507;48.454;-2.058;2024-02-21T02:18:34;11.50;88.10
76613;DHT22;65507;48.454;-2.058;2024-02-21T02:20:59;11.50;88.00
76613;DHT22;65507;48.454;-2.058;2024-02-21T02:23:29;11.50;88.10
76613;DHT22;65507;48.454;-2.058;2024-02-21T02:25:57;11.50;88.10
76613;DHT22;65507;48.454;-2.058;2024-02-21T02:28:23;11.50;88.10
76613;DHT22;65507;48.454;-2.058;2024-02-21T02:30:49;11.50;88.10
76613;DHT22;65507;48.454;-2.058;2024-02-21T02:33:15;11.60;88.20
76613;DHT22;65507;48.454;-2.058;2024-02-21T02:35:43;11.60;88.20
76613;DHT22;65507;48.454;-2.058;2024-02-21T02:38:09;11.50;88.10
76613;DHT22;65507;48.454;-2.058;2024-02-21T02:40:36;11.60;88.20
76613;DHT22;65507;48.454;-2.058;2024-02-21T02:43:03;11.60;88.20
76613;DHT22;65507;48.454;-2.058;2024-02-21T02:45:29;11.60;88.20
76613;DHT22;65507;48.454;-2.058;2024-02-21T02:47:55;11.60;88.20
76613;DHT22;65507;48.454;-2.058;2024-02-21T02:50:22;11.60;88.20
76613;DHT22;65507;48.454;-2.058;2024-02-21T02:52:48;11.60;88.20
76613;DHT22;65507;48.454;-2.058;2024-02-21T02:55:14;11.50;88.10
76613;DHT22;65507;48.454;-2.058;2024-02-21T02:57:39;11.60;88.20
76613;DHT22;65507;48.454;-2.058;2024-02-21T03:00:07;11.50;88.20
76613;DHT22;65507;48.454;-2.058;2024-02-21T03:02:33;11.60;88.20
76613;DHT22;65507;48.454;-2.058;2024-02-21T03:04:58;11.60;88.20
76613;DHT22;65507;48.454;-2.058;2024-02-21T03:07:25;11.50;88.20
76613;DHT22;65507;48.454;-2.058;2024-02-21T03:09:51;11.60;88.30
76613;DHT22;65507;48.454;-2.058;2024-02-21T03:12:17;11.50;88.30
76613;DHT22;65507;48.454;-2.058;2024-02-21T03:14:53;11.60;88.40
76613;DHT22;65507;48.454;-2.058;2024-02-21T03:17:19;11.60;88.40
76613;DHT22;65507;48.454;-2.058;2024-02-21T03:19:44;11.60;88.40
76613;DHT22;65507;48.454;-2.058;2024-02-21T03:22:10;11.60;88.30
76613;DHT22;65507;48.454;-2.058;2024-02-21T03:24:35;11.60;88.30
76613;DHT22;65507;48.454;-2.058;2024-02-21T03:27:01;11.60;88.40
76613;DHT22;65507;48.454;-2.058;2024-02-21T03:29:27;11.60;88.40
76613;DHT22;65507;48.454;-2.058;2024-02-21T03:31:53;11.60;88.40
76613;DHT22;65507;48.454;-2.058;2024-02-21T03:34:19;11.60;88.40
76613;DHT22;65507;48.454;-2.058;2024-02-21T03:36:44;11.60;88.50
76613;DHT22;65507;48.454;-2.058;2024-02-21T03:39:10;11.60;88.50
76613;DHT22;65507;48.454;-2.058;2024-02-21T03:41:36;11.50;88.40
76613;DHT22;65507;48.454;-2.058;2024-02-21T03:44:01;11.50;88.40
76613;DHT22;65507;48.454;-2.058;2024-02-21T03:46:27;11.50;88.40
76613;DHT22;65507;48.454;-2.058;2024-02-21T03:48:53;11.50;88.40
76613;DHT22;65507;48.454;-2.058;2024-02-21T03:51:19;11.50;88.40
76613;DHT22;65507;48.454;-2.058;2024-02-21T03:53:44;11.50;88.40
76613;DHT22;65507;48.454;-2.058;2024-02-21T03:56:10;11.50;88.50
76613;DHT22;65507;48.454;-2.058;2024-02-21T03:58:36;11.60;88.50
76613;DHT22;65507;48.454;-2.058;2024-02-21T04:01:02;11.50;88.40
76613;DHT22;65507;48.454;-2.058;2024-02-21T04:03:28;11.60;88.50
76613;DHT22;65507;48.454;-2.058;2024-02-21T04:05:54;11.50;88.40
76613;DHT22;65507;48.454;-2.058;2024-02-21T04:08:19;11.60;88.40
76613;DHT22;65507;48.454;-2.058;2024-02-21T04:10:45;11.60;88.40
76613;DHT22;65507;48.454;-2.058;2024-02-21T04:13:11;11.60;88.40
76613;DHT22;65507;48.454;-2.058;2024-02-21T04:15:36;11.50;88.30
76613;DHT22;65507;48.454;-2.058;2024-02-21T04:18:02;11.60;88.40
76613;DHT22;65507;48.454;-2.058;2024-02-21T04:20:31;11.60;88.40
76613;DHT22;65507;48.454;-2.058;2024-02-21T04:22:58;11.60;88.40
76613;DHT22;65507;48.454;-2.058;2024-02-21T04:25:23;11.60;88.40
76613;DHT22;65507;48.454;-2.058;2024-02-21T04:27:49;11.60;88.40
76613;DHT22;65507;48.454;-2.058;2024-02-21T04:30:15;11.60;88.40
76613;DHT22;65507;48.454;-2.058;2024-02-21T04:32:41;11.60;88.30
76613;DHT22;65507;48.454;-2.058;2024-02-21T04:35:07;11.60;88.40
76613;DHT22;65507;48.454;-2.058;2024-02-21T04:37:33;11.70;88.40
76613;DHT22;65507;48.454;-2.058;2024-02-21T04:39:59;11.70;88.40
76613;DHT22;65507;48.454;-2.058;2024-02-21T04:42:25;11.70;88.40
76613;DHT22;65507;48.454;-2.058;2024-02-21T04:44:50;11.70;88.40
76613;DHT22;65507;48.454;-2.058;2024-02-21T04:47:16;11.70;88.30
76613;DHT22;65507;48.454;-2.058;2024-02-21T04:49:42;11.70;88.20
76613;DHT22;65507;48.454;-2.058;2024-02-21T04:52:08;11.70;88.20
76613;DHT22;65507;48.454;-2.058;2024-02-21T04:54:34;11.70;88.20
76613;DHT22;65507;48.454;-2.058;2024-02-21T04:57:01;11.70;88.20
76613;DHT22;65507;48.454;-2.058;2024-02-21T04:59:26;11.70;88.20
76613;DHT22;65507;48.454;-2.058;2024-02-21T05:01:52;11.70;88.20
76613;DHT22;65507;48.454;-2.058;2024-02-21T05:04:18;11.70;88.30
76613;DHT22;65507;48.454;-2.058;2024-02-21T05:06:44;11.80;88.30
76613;DHT22;65507;48.454;-2.058;2024-02-21T05:09:10;11.70;88.30
76613;DHT22;65507;48.454;-2.058;2024-02-21T05:11:36;11.70;88.40
76613;DHT22;65507;48.454;-2.058;2024-02-21T05:14:03;11.70;88.40
76613;DHT22;65507;48.454;-2.058;2024-02-21T05:16:29;11.70;88.40
76613;DHT22;65507;48.454;-2.058;2024-02-21T05:18:54;11.70;88.40
76613;DHT22;65507;48.454;-2.058;2024-02-21T05:21:22;11.70;88.40
76613;DHT22;65507;48.454;-2.058;2024-02-21T05:23:49;11.70;88.30
76613;DHT22;65507;48.454;-2.058;2024-02-21T05:26:25;11.70;88.30
76613;DHT22;65507;48.454;-2.058;2024-02-21T05:28:51;11.70;88.20
76613;DHT22;65507;48.454;-2.058;2024-02-21T05:31:20;11.70;88.20
76613;DHT22;65507;48.454;-2.058;2024-02-21T05:33:46;11.70;88.20
76613;DHT22;65507;48.454;-2.058;2024-02-21T05:36:13;11.70;88.20
76613;DHT22;65507;48.454;-2.058;2024-02-21T05:38:39;11.70;88.20
76613;DHT22;65507;48.454;-2.058;2024-02-21T05:41:05;11.80;88.30
76613;DHT22;65507;48.454;-2.058;2024-02-21T05:43:31;11.70;88.20
76613;DHT22;65507;48.454;-2.058;2024-02-21T05:45:57;11.70;88.20
76613;DHT22;65507;48.454;-2.058;2024-02-21T05:48:23;11.80;88.30
76613;DHT22;65507;48.454;-2.058;2024-02-21T05:50:49;11.70;88.30
76613;DHT22;65507;48.454;-2.058;2024-02-21T05:53:14;11.70;88.30
76613;DHT22;65507;48.454;-2.058;2024-02-21T05:55:40;11.80;88.40
76613;DHT22;65507;48.454;-2.058;2024-02-21T05:58:07;11.70;88.30
76613;DHT22;65507;48.454;-2.058;2024-02-21T06:00:33;11.70;88.30
76613;DHT22;65507;48.454;-2.058;2024-02-21T06:02:59;11.70;88.30
76613;DHT22;65507;48.454;-2.058;2024-02-21T06:05:25;11.70;88.40
76613;DHT22;65507;48.454;-2.058;2024-02-21T06:07:50;11.70;88.30
76613;DHT22;65507;48.454;-2.058;2024-02-21T06:10:16;11.80;88.40
76613;DHT22;65507;48.454;-2.058;2024-02-21T06:12:42;11.80;88.40
76613;DHT22;65507;48.454;-2.058;2024-02-21T06:15:08;11.80;88.30
76613;DHT22;65507;48.454;-2.058;2024-02-21T06:17:34;11.80;88.40
76613;DHT22;65507;48.454;-2.058;2024-02-21T06:19:59;11.80;88.40
76613;DHT22;65507;48.454;-2.058;2024-02-21T06:22:25;11.70;88.30
76613;DHT22;65507;48.454;-2.058;2024-02-21T06:24:51;11.70;88.40
76613;DHT22;65507;48.454;-2.058;2024-02-21T06:27:16;11.80;88.40
76613;DHT22;65507;48.454;-2.058;2024-02-21T06:29:42;11.70;88.40
76613;DHT22;65507;48.454;-2.058;2024-02-21T06:32:08;11.70;88.40
76613;DHT22;65507;48.454;-2.058;2024-02-21T06:34:34;11.80;88.40
76613;DHT22;65507;48.454;-2.058;2024-02-21T06:37:00;11.80;88.40
76613;DHT22;65507;48.454;-2.058;2024-02-21T06:39:26;11.80;88.40
76613;DHT22;65507;48.454;-2.058;2024-02-21T06:41:54;11.80;88.40
76613;DHT22;65507;48.454;-2.058;2024-02-21T06:44:21;11.80;88.50
76613;DHT22;65507;48.454;-2.058;2024-02-21T06:46:46;11.80;88.50
76613;DHT22;65507;48.454;-2.058;2024-02-21T06:49:12;11.80;88.50
76613;DHT22;65507;48.454;-2.058;2024-02-21T06:51:42;11.80;88.50
76613;DHT22;65507;48.454;-2.058;2024-02-21T06:54:08;11.80;88.60
76613;DHT22;65507;48.454;-2.058;2024-02-21T06:56:35;11.70;88.60
76613;DHT22;65507;48.454;-2.058;2024-02-21T06:59:01;11.80;88.60
76613;DHT22;65507;48.454;-2.058;2024-02-21T07:01:28;11.80;88.70
76613;DHT22;65507;48.454;-2.058;2024-02-21T07:03:54;11.70;88.60
76613;DHT22;65507;48.454;-2.058;2024-02-21T07:06:20;11.70;88.60
76613;DHT22;65507;48.454;-2.058;2024-02-21T07:08:45;11.70;88.60
76613;DHT22;65507;48.454;-2.058;2024-02-21T07:11:11;11.70;88.70
76613;DHT22;65507;48.454;-2.058;2024-02-21T07:13:37;11.70;88.70
76613;DHT22;65507;48.454;-2.058;2024-02-21T07:16:03;11.80;88.70
76613;DHT22;65507;48.454;-2.058;2024-02-21T07:18:28;11.70;88.70
76613;DHT22;65507;48.454;-2.058;2024-02-21T07:20:54;11.80;88.80
76613;DHT22;65507;48.454;-2.058;2024-02-21T07:23:21;11.80;88.80
76613;DHT22;65507;48.454;-2.058;2024-02-21T07:25:46;11.80;88.80
76613;DHT22;65507;48.454;-2.058;2024-02-21T07:28:12;11.80;88.90
76613;DHT22;65507;48.454;-2.058;2024-02-21T07:30:39;11.80;88.90
76613;DHT22;65507;48.454;-2.058;2024-02-21T07:33:04;11.80;88.90
76613;DHT22;65507;48.454;-2.058;2024-02-21T07:35:32;11.80;89.10
76613;DHT22;65507;48.454;-2.058;2024-02-21T07:37:58;11.80;89.00
76613;DHT22;65507;48.454;-2.058;2024-02-21T07:40:24;11.80;89.00
76613;DHT22;65507;48.454;-2.058;2024-02-21T07:42:49;11.80;89.10
76613;DHT22;65507;48.454;-2.058;2024-02-21T07:45:15;11.80;89.10
76613;DHT22;65507;48.454;-2.058;2024-02-21T07:47:41;11.80;89.10
76613;DHT22;65507;48.454;-2.058;2024-02-21T07:50:07;11.80;89.20
76613;DHT22;65507;48.454;-2.058;2024-02-21T07:52:33;11.80;89.10
76613;DHT22;65507;48.454;-2.058;2024-02-21T07:54:59;11.80;89.10
76613;DHT22;65507;48.454;-2.058;2024-02-21T07:57:24;11.90;89.20
76613;DHT22;65507;48.454;-2.058;2024-02-21T07:59:50;11.90;89.20
76613;DHT22;65507;48.454;-2.058;2024-02-21T08:02:16;11.90;89.20
76613;DHT22;65507;48.454;-2.058;2024-02-21T08:04:42;11.90;89.20
76613;DHT22;65507;48.454;-2.058;2024-02-21T08:07:09;11.90;89.20
76613;DHT22;65507;48.454;-2.058;2024-02-21T08:09:35;11.90;89.20
76613;DHT22;65507;48.454;-2.058;2024-02-21T08:12:04;11.90;89.20
76613;DHT22;65507;48.454;-2.058;2024-02-21T08:14:29;11.90;89.10
76613;DHT22;65507;48.454;-2.058;2024-02-21T08:16:55;11.90;89.10
76613;DHT22;65507;48.454;-2.058;2024-02-21T08:19:22;11.90;89.10
76613;DHT22;65507;48.454;-2.058;2024-02-21T08:21:50;12.00;89.10
76613;DHT22;65507;48.454;-2.058;2024-02-21T08:24:16;12.00;89.20
76613;DHT22;65507;48.454;-2.058;2024-02-21T08:26:43;12.00;89.10
76613;DHT22;65507;48.454;-2.058;2024-02-21T08:29:10;12.00;89.10
76613;DHT22;65507;48.454;-2.058;2024-02-21T08:31:36;12.00;89.10
76613;DHT22;65507;48.454;-2.058;2024-02-21T08:34:02;11.90;89.00
76613;DHT22;65507;48.454;-2.058;2024-02-21T08:36:35;12.10;89.10
76613;DHT22;65507;48.454;-2.058;2024-02-21T08:39:02;12.10;89.10
76613;DHT22;65507;48.454;-2.058;2024-02-21T08:41:30;12.10;89.00
76613;DHT22;65507;48.454;-2.058;2024-02-21T08:43:56;12.10;89.00
76613;DHT22;65507;48.454;-2.058;2024-02-21T08:46:22;12.10;89.00
76613;DHT22;65507;48.454;-2.058;2024-02-21T08:48:52;12.10;89.00
76613;DHT22;65507;48.454;-2.058;2024-02-21T08:51:18;12.70;89.30
76613;DHT22;65507;48.454;-2.058;2024-02-21T08:53:47;12.20;89.00
76613;DHT22;65507;48.454;-2.058;2024-02-21T08:56:13;12.20;89.00
76613;DHT22;65507;48.454;-2.058;2024-02-21T08:58:40;12.20;89.00
76613;DHT22;65507;48.454;-2.058;2024-02-21T09:01:06;12.20;89.10
76613;DHT22;65507;48.454;-2.058;2024-02-21T09:03:41;12.20;89.00
76613;DHT22;65507;48.454;-2.058;2024-02-21T09:06:07;12.30;89.10
76613;DHT22;65507;48.454;-2.058;2024-02-21T09:08:33;12.20;89.00
76613;DHT22;65507;48.454;-2.058;2024-02-21T09:11:02;12.30;89.10
76613;DHT22;65507;48.454;-2.058;2024-02-21T09:13:28;12.30;89.10
76613;DHT22;65507;48.454;-2.058;2024-02-21T09:15:54;12.30;89.10
76613;DHT22;65507;48.454;-2.058;2024-02-21T09:18:19;12.30;89.00
76613;DHT22;65507;48.454;-2.058;2024-02-21T09:20:45;12.40;89.10
76613;DHT22;65507;48.454;-2.058;2024-02-21T09:23:11;12.40;89.10
76613;DHT22;65507;48.454;-2.058;2024-02-21T09:25:37;12.40;89.10
76613;DHT22;65507;48.454;-2.058;2024-02-21T09:28:03;12.40;89.10
76613;DHT22;65507;48.454;-2.058;2024-02-21T09:30:31;12.40;89.10
76613;DHT22;65507;48.454;-2.058;2024-02-21T09:32:57;12.40;89.10
76613;DHT22;65507;48.454;-2.058;2024-02-21T09:35:25;12.40;89.10
76613;DHT22;65507;48.454;-2.058;2024-02-21T09:37:53;12.40;90.00
76613;DHT22;65507;48.454;-2.058;2024-02-21T09:40:20;12.40;89.10
76613;DHT22;65507;48.454;-2.058;2024-02-21T09:42:47;12.50;89.20
76613;DHT22;65507;48.454;-2.058;2024-02-21T09:45:23;12.40;89.10
76613;DHT22;65507;48.454;-2.058;2024-02-21T09:50:40;12.50;89.20
76613;DHT22;65507;48.454;-2.058;2024-02-21T09:53:11;12.50;89.10
76613;DHT22;65507;48.454;-2.058;2024-02-21T09:55:38;12.50;89.10
76613;DHT22;65507;48.454;-2.058;2024-02-21T09:58:07;12.50;89.20
76613;DHT22;65507;48.454;-2.058;2024-02-21T10:00:34;12.60;89.20
76613;DHT22;65507;48.454;-2.058;2024-02-21T10:03:00;12.50;89.10
76613;DHT22;65507;48.454;-2.058;2024-02-21T10:05:26;12.50;89.10
76613;DHT22;65507;48.454;-2.058;2024-02-21T10:07:53;12.50;89.10
76613;DHT22;65507;48.454;-2.058;2024-02-21T10:10:19;12.60;89.10
76613;DHT22;65507;48.454;-2.058;2024-02-21T10:12:50;12.50;89.20
76613;DHT22;65507;48.454;-2.058;2024-02-21T10:15:23;12.60;89.30
76613;DHT22;65507;48.454;-2.058;2024-02-21T10:17:59;12.60;89.10
76613;DHT22;65507;48.454;-2.058;2024-02-21T10:20:25;12.60;89.10
76613;DHT22;65507;48.454;-2.058;2024-02-21T10:23:06;12.60;89.10
76613;DHT22;65507;48.454;-2.058;2024-02-21T10:25:35;12.60;89.10
76613;DHT22;65507;48.454;-2.058;2024-02-21T10:28:04;12.60;89.00
76613;DHT22;65507;48.454;-2.058;2024-02-21T10:30:29;12.60;89.10
76613;DHT22;65507;48.454;-2.058;2024-02-21T10:32:56;12.60;89.10
76613;DHT22;65507;48.454;-2.058;2024-02-21T10:35:29;12.60;89.20
76613;DHT22;65507;48.454;-2.058;2024-02-21T10:37:56;12.60;89.30
76613;DHT22;65507;48.454;-2.058;2024-02-21T10:40:26;12.60;89.20
76613;DHT22;65507;48.454;-2.058;2024-02-21T10:43:00;12.60;89.20
76613;DHT22;65507;48.454;-2.058;2024-02-21T10:45:35;12.60;89.20
76613;DHT22;65507;48.454;-2.058;2024-02-21T10:48:14;12.60;89.30
76613;DHT22;65507;48.454;-2.058;2024-02-21T10:56:31;12.60;89.20
76613;DHT22;65507;48.454;-2.058;2024-02-21T10:59:01;12.60;89.30
76613;DHT22;65507;48.454;-2.058;2024-02-21T11:01:28;12.60;89.30
76613;DHT22;65507;48.454;-2.058;2024-02-21T11:03:59;12.60;89.30
76613;DHT22;65507;48.454;-2.058;2024-02-21T11:06:26;12.60;89.30
76613;DHT22;65507;48.454;-2.058;2024-02-21T11:09:03;12.60;89.20
76613;DHT22;65507;48.454;-2.058;2024-02-21T11:11:33;12.60;89.30
76613;DHT22;65507;48.454;-2.058;2024-02-21T11:14:10;12.60;89.20
76613;DHT22;65507;48.454;-2.058;2024-02-21T11:16:38;12.60;89.20
76613;DHT22;65507;48.454;-2.058;2024-02-21T11:19:05;12.60;89.20
76613;DHT22;65507;48.454;-2.058;2024-02-21T11:21:35;12.60;89.20
76613;DHT22;65507;48.454;-2.058;2024-02-21T11:24:02;12.60;89.30
76613;DHT22;65507;48.454;-2.058;2024-02-21T11:26:29;12.60;89.20
76613;DHT22;65507;48.454;-2.058;2024-02-21T11:29:01;12.60;89.20
76613;DHT22;65507;48.454;-2.058;2024-02-21T11:31:44;12.60;89.20
76613;DHT22;65507;48.454;-2.058;2024-02-21T11:34:17;12.60;89.30
76613;DHT22;65507;48.454;-2.058;2024-02-21T11:36:51;12.50;89.20
76613;DHT22;65507;48.454;-2.058;2024-02-21T11:39:24;12.50;89.30
76613;DHT22;65507;48.454;-2.058;2024-02-21T11:42:19;12.50;89.30
76613;DHT22;65507;48.454;-2.058;2024-02-21T11:44:45;12.40;89.20
76613;DHT22;65507;48.454;-2.058;2024-02-21T11:47:11;12.40;89.30
76613;DHT22;65507;48.454;-2.058;2024-02-21T11:49:39;12.40;89.30
76613;DHT22;65507;48.454;-2.058;2024-02-21T11:52:07;12.40;89.40
76613;DHT22;65507;48.454;-2.058;2024-02-21T11:54:34;12.40;89.40
76613;DHT22;65507;48.454;-2.058;2024-02-21T11:57:00;12.40;89.40
76613;DHT22;65507;48.454;-2.058;2024-02-21T11:59:26;12.30;89.40
76613;DHT22;65507;48.454;-2.058;2024-02-21T12:01:53;12.30;89.40
76613;DHT22;65507;48.454;-2.058;2024-02-21T12:04:22;12.30;89.30
76613;DHT22;65507;48.454;-2.058;2024-02-21T12:06:49;12.30;89.40
76613;DHT22;65507;48.454;-2.058;2024-02-21T12:09:16;12.30;89.30
76613;DHT22;65507;48.454;-2.058;2024-02-21T12:11:43;12.30;89.40
76613;DHT22;65507;48.454;-2.058;2024-02-21T12:14:09;12.30;89.30
76613;DHT22;65507;48.454;-2.058;2024-02-21T12:16:35;12.30;89.30
76613;DHT22;65507;48.454;-2.058;2024-02-21T12:19:04;12.30;89.30
76613;DHT22;65507;48.454;-2.058;2024-02-21T12:21:31;12.30;89.30
76613;DHT22;65507;48.454;-2.058;2024-02-21T12:24:05;12.30;89.30
76613;DHT22;65507;48.454;-2.058;2024-02-21T12:26:36;12.30;89.30
76613;DHT22;65507;48.454;-2.058;2024-02-21T12:29:02;12.30;89.30
76613;DHT22;65507;48.454;-2.058;2024-02-21T12:31:28;12.30;89.20
76613;DHT22;65507;48.454;-2.058;2024-02-21T12:33:54;12.30;89.30
76613;DHT22;65507;48.454;-2.058;2024-02-21T12:36:20;12.30;89.30
76613;DHT22;65507;48.454;-2.058;2024-02-21T12:38:46;12.30;89.20
76613;DHT22;65507;48.454;-2.058;2024-02-21T12:41:14;12.30;89.20
76613;DHT22;65507;48.454;-2.058;2024-02-21T12:43:40;12.30;89.20
76613;DHT22;65507;48.454;-2.058;2024-02-21T12:46:05;12.30;89.20
76613;DHT22;65507;48.454;-2.058;2024-02-21T12:48:33;12.30;89.20
76613;DHT22;65507;48.454;-2.058;2024-02-21T12:50:59;12.20;89.20
76613;DHT22;65507;48.454;-2.058;2024-02-21T12:53:25;12.20;89.30
76613;DHT22;65507;48.454;-2.058;2024-02-21T12:55:51;12.20;89.20
76613;DHT22;65507;48.454;-2.058;2024-02-21T12:58:17;12.20;89.20
76613;DHT22;65507;48.454;-2.058;2024-02-21T13:00:43;12.20;89.10
76613;DHT22;65507;48.454;-2.058;2024-02-21T13:03:09;12.20;89.10
76613;DHT22;65507;48.454;-2.058;2024-02-21T13:05:36;12.20;89.10
76613;DHT22;65507;48.454;-2.058;2024-02-21T13:08:02;12.20;89.00
76613;DHT22;65507;48.454;-2.058;2024-02-21T13:10:28;12.30;89.00
76613;DHT22;65507;48.454;-2.058;2024-02-21T13:12:53;12.30;89.00
76613;DHT22;65507;48.454;-2.058;2024-02-21T13:15:20;12.30;88.90
76613;DHT22;65507;48.454;-2.058;2024-02-21T13:17:45;12.30;88.90
76613;DHT22;65507;48.454;-2.058;2024-02-21T13:20:11;12.40;88.90
76613;DHT22;65507;48.454;-2.058;2024-02-21T13:22:38;12.40;88.90
76613;DHT22;65507;48.454;-2.058;2024-02-21T13:25:04;12.40;88.90
76613;DHT22;65507;48.454;-2.058;2024-02-21T13:27:33;12.40;88.90
76613;DHT22;65507;48.454;-2.058;2024-02-21T13:29:58;12.40;88.90
76613;DHT22;65507;48.454;-2.058;2024-02-21T13:32:25;12.50;88.80
76613;DHT22;65507;48.454;-2.058;2024-02-21T13:34:51;12.50;88.80
76613;DHT22;65507;48.454;-2.058;2024-02-21T13:37:18;12.40;88.70
76613;DHT22;65507;48.454;-2.058;2024-02-21T13:39:43;12.50;88.70
76613;DHT22;65507;48.454;-2.058;2024-02-21T13:42:09;12.60;88.80
76613;DHT22;65507;48.454;-2.058;2024-02-21T13:44:35;12.60;88.60
76613;DHT22;65507;48.454;-2.058;2024-02-21T13:47:02;12.70;88.60
76613;DHT22;65507;48.454;-2.058;2024-02-21T13:49:27;12.70;88.60
76613;DHT22;65507;48.454;-2.058;2024-02-21T13:51:54;12.70;88.60
76613;DHT22;65507;48.454;-2.058;2024-02-21T13:54:19;12.70;88.60
76613;DHT22;65507;48.454;-2.058;2024-02-21T13:56:46;12.70;88.70
76613;DHT22;65507;48.454;-2.058;2024-02-21T13:59:13;12.80;88.70
76613;DHT22;65507;48.454;-2.058;2024-02-21T14:01:41;12.80;88.70
76613;DHT22;65507;48.454;-2.058;2024-02-21T14:04:08;12.80;88.70
76613;DHT22;65507;48.454;-2.058;2024-02-21T14:06:34;12.90;88.70
76613;DHT22;65507;48.454;-2.058;2024-02-21T14:08:59;12.90;88.70
76613;DHT22;65507;48.454;-2.058;2024-02-21T14:11:25;12.90;88.60
76613;DHT22;65507;48.454;-2.058;2024-02-21T14:13:52;12.90;88.70
76613;DHT22;65507;48.454;-2.058;2024-02-21T14:16:18;13.00;88.70
76613;DHT22;65507;48.454;-2.058;2024-02-21T14:18:43;13.00;88.70
76613;DHT22;65507;48.454;-2.058;2024-02-21T14:21:10;13.00;88.70
76613;DHT22;65507;48.454;-2.058;2024-02-21T14:23:40;13.10;88.80
76613;DHT22;65507;48.454;-2.058;2024-02-21T14:26:05;13.10;88.70
76613;DHT22;65507;48.454;-2.058;2024-02-21T14:28:33;13.10;88.70
76613;DHT22;65507;48.454;-2.058;2024-02-21T14:31:01;13.20;88.70
76613;DHT22;65507;48.454;-2.058;2024-02-21T14:33:28;13.20;88.70
76613;DHT22;65507;48.454;-2.058;2024-02-21T14:35:55;13.30;88.70
76613;DHT22;65507;48.454;-2.058;2024-02-21T14:38:23;13.30;88.60
76613;DHT22;65507;48.454;-2.058;2024-02-21T14:40:49;13.30;88.60
76613;DHT22;65507;48.454;-2.058;2024-02-21T14:43:15;13.30;88.60
76613;DHT22;65507;48.454;-2.058;2024-02-21T14:45:40;13.40;88.70
76613;DHT22;65507;48.454;-2.058;2024-02-21T14:48:06;13.40;88.70
76613;DHT22;65507;48.454;-2.058;2024-02-21T14:50:32;13.40;88.70
76613;DHT22;65507;48.454;-2.058;2024-02-21T14:52:58;13.50;88.80
76613;DHT22;65507;48.454;-2.058;2024-02-21T14:55:24;13.50;88.80
76613;DHT22;65507;48.454;-2.058;2024-02-21T14:57:50;13.50;88.80
76613;DHT22;65507;48.454;-2.058;2024-02-21T15:00:16;13.60;88.80
76613;DHT22;65507;48.454;-2.058;2024-02-21T15:02:42;13.60;88.80
76613;DHT22;65507;48.454;-2.058;2024-02-21T15:05:08;13.60;88.80
76613;DHT22;65507;48.454;-2.058;2024-02-21T15:07:34;13.70;88.90
76613;DHT22;65507;48.454;-2.058;2024-02-21T15:10:00;13.70;88.90
76613;DHT22;65507;48.454;-2.058;2024-02-21T15:12:26;13.80;88.90
76613;DHT22;65507;48.454;-2.058;2024-02-21T15:14:51;13.80;88.90
76613;DHT22;65507;48.454;-2.058;2024-02-21T15:17:17;13.80;88.90
76613;DHT22;65507;48.454;-2.058;2024-02-21T15:19:44;13.90;88.90
76613;DHT22;65507;48.454;-2.058;2024-02-21T15:22:10;13.90;88.90